sensor_id;sensor_type;location;lat;lon;timestamp;temperature;humidity
32476;DHT22;18929;48.008;10.882;2023-04-24T00:00:36;13.10;99.90
32476;DHT22;18929;48.008;10.882;2023-04-24T00:03:03;13.30;99.90
32476;DHT22;18929;48.008;10.882;2023-04-24T00:05:33;13.20;99.90
32476;DHT22;18929;48.008;10.882;2023-04-24T00:07:59;13.40;99.90
32476;DHT22;18929;48.008;10.882;2023-04-24T00:10:26;13.20;99.90
32476;DHT22;18929;48.008;10.882;2023-04-24T00:12:53;13.40;99.90
32476;DHT22;18929;48.008;10.882;2023-04-24T00:15:20;13.20;99.90
32476;DHT22;18929;48.008;10.882;2023-04-24T00:17:47;13.20;99.90
32476;DHT22;18929;48.008;10.882;2023-04-24T00:20:14;13.20;99.90
32476;DHT22;18929;48.008;10.882;2023-04-24T00:22:42;13.30;99.90
32476;DHT22;18929;48.008;10.882;2023-04-24T00:25:09;13.00;99.90
32476;DHT22;18929;48.008;10.882;2023-04-24T00:27:35;13.10;99.90
32476;DHT22;18929;48.008;10.882;2023-04-24T00:30:04;13.00;99.90
32476;DHT22;18929;48.008;10.882;2023-04-24T00:32:31;13.10;99.90
32476;DHT22;18929;48.008;10.882;2023-04-24T00:34:58;13.00;99.90
32476;DHT22;18929;48.008;10.882;2023-04-24T00:37:25;13.00;99.90
32476;DHT22;18929;48.008;10.882;2023-04-24T00:39:53;12.80;99.90
32476;DHT22;18929;48.008;10.882;2023-04-24T00:42:20;13.00;99.90
32476;DHT22;18929;48.008;10.882;2023-04-24T00:44:47;12.90;99.90
32476;DHT22;18929;48.008;10.882;2023-04-24T00:47:13;12.70;99.90
32476;DHT22;18929;48.008;10.882;2023-04-24T00:49:41;12.90;99.90
32476;DHT22;18929;48.008;10.882;2023-04-24T00:52:07;12.70;99.90
32476;DHT22;18929;48.008;10.882;2023-04-24T00:54:34;12.60;99.90
32476;DHT22;18929;48.008;10.882;2023-04-24T00:57:03;12.70;99.90
32476;DHT22;18929;48.008;10.882;2023-04-24T00:59:30;12.80;99.90
32476;DHT22;18929;48.008;10.882;2023-04-24T01:01:57;13.00;99.90
32476;DHT22;18929;48.008;10.882;2023-04-24T01:07:13;12.80;99.90
32476;DHT22;18929;48.008;10.882;2023-04-24T01:09:40;12.90;99.90
32476;DHT22;18929;48.008;10.882;2023-04-24T01:12:09;12.90;99.90
32476;DHT22;18929;48.008;10.882;2023-04-24T01:14:36;12.90;99.90
32476;DHT22;18929;48.008;10.882;2023-04-24T01:17:02;12.80;99.90
32476;DHT22;18929;48.008;10.882;2023-04-24T01:19:29;12.80;99.90
32476;DHT22;18929;48.008;10.882;2023-04-24T01:21:57;12.80;99.90
32476;DHT22;18929;48.008;10.882;2023-04-24T01:24:26;12.70;99.90
32476;DHT22;18929;48.008;10.882;2023-04-24T01:26:52;12.70;99.90
32476;DHT22;18929;48.008;10.882;2023-04-24T01:29:20;12.80;99.90
32476;DHT22;18929;48.008;10.882;2023-04-24T01:31:47;12.60;99.90
32476;DHT22;18929;48.008;10.882;2023-04-24T01:34:14;12.70;99.90
32476;DHT22;18929;48.008;10.882;2023-04-24T01:36:42;12.70;99.90
32476;DHT22;18929;48.008;10.882;2023-04-24T01:39:11;12.60;99.90
32476;DHT22;18929;48.008;10.882;2023-04-24T01:41:39;12.60;99.90
32476;DHT22;18929;48.008;10.882;2023-04-24T01:44:06;12.60;99.90
32476;DHT22;18929;48.008;10.882;2023-04-24T01:46:33;12.40;99.90
32476;DHT22;18929;48.008;10.882;2023-04-24T01:49:01;12.40;99.90
32476;DHT22;18929;48.008;10.882;2023-04-24T01:51:28;12.30;99.90
32476;DHT22;18929;48.008;10.882;2023-04-24T01:53:55;12.20;99.90
32476;DHT22;18929;48.008;10.882;2023-04-24T01:56:22;12.30;99.90
32476;DHT22;18929;48.008;10.882;2023-04-24T01:58:50;12.20;99.90
32476;DHT22;18929;48.008;10.882;2023-04-24T02:01:19;12.30;99.90
32476;DHT22;18929;48.008;10.882;2023-04-24T02:03:45;12.40;99.90
32476;DHT22;18929;48.008;10.882;2023-04-24T02:06:12;12.30;99.90
32476;DHT22;18929;48.008;10.882;2023-04-24T02:08:39;12.30;99.90
32476;DHT22;18929;48.008;10.882;2023-04-24T02:11:06;12.20;99.90
32476;DHT22;18929;48.008;10.882;2023-04-24T02:13:32;12.30;99.90
32476;DHT22;18929;48.008;10.882;2023-04-24T02:16:01;12.10;99.90
32476;DHT22;18929;48.008;10.882;2023-04-24T02:18:27;12.10;99.90
32476;DHT22;18929;48.008;10.882;2023-04-24T02:20:54;12.30;99.90
32476;DHT22;18929;48.008;10.882;2023-04-24T02:23:21;12.30;99.90
32476;DHT22;18929;48.008;10.882;2023-04-24T02:25:48;12.40;99.90
32476;DHT22;18929;48.008;10.882;2023-04-24T02:28:15;12.20;99.90
32476;DHT22;18929;48.008;10.882;2023-04-24T02:30:42;12.10;99.90
32476;DHT22;18929;48.008;10.882;2023-04-24T02:33:10;12.10;99.90
32476;DHT22;18929;48.008;10.882;2023-04-24T02:35:37;12.00;99.90
32476;DHT22;18929;48.008;10.882;2023-04-24T02:38:04;12.10;99.90
32476;DHT22;18929;48.008;10.882;2023-04-24T02:40:30;12.00;99.90
32476;DHT22;18929;48.008;10.882;2023-04-24T02:42:58;12.20;99.90
32476;DHT22;18929;48.008;10.882;2023-04-24T02:45:25;12.30;99.90
32476;DHT22;18929;48.008;10.882;2023-04-24T02:47:52;12.20;99.90
32476;DHT22;18929;48.008;10.882;2023-04-24T02:50:20;11.80;99.90
32476;DHT22;18929;48.008;10.882;2023-04-24T02:52:47;12.20;99.90
32476;DHT22;18929;48.008;10.882;2023-04-24T02:55:13;12.60;99.90
32476;DHT22;18929;48.008;10.882;2023-04-24T02:57:40;12.60;99.90
32476;DHT22;18929;48.008;10.882;2023-04-24T03:00:08;12.60;99.90
32476;DHT22;18929;48.008;10.882;2023-04-24T03:02:34;12.40;99.90
32476;DHT22;18929;48.008;10.882;2023-04-24T03:05:01;12.40;99.90
32476;DHT22;18929;48.008;10.882;2023-04-24T03:07:30;12.30;99.90
32476;DHT22;18929;48.008;10.882;2023-04-24T03:09:57;12.30;99.90
32476;DHT22;18929;48.008;10.882;2023-04-24T03:12:24;12.20;99.90
32476;DHT22;18929;48.008;10.882;2023-04-24T03:14:51;12.20;99.90
32476;DHT22;18929;48.008;10.882;2023-04-24T03:17:18;12.20;99.90
32476;DHT22;18929;48.008;10.882;2023-04-24T03:19:44;12.30;99.90
32476;DHT22;18929;48.008;10.882;2023-04-24T03:22:11;12.10;99.90
32476;DHT22;18929;48.008;10.882;2023-04-24T03:24:40;12.10;99.90
32476;DHT22;18929;48.008;10.882;2023-04-24T03:27:06;12.00;99.90
32476;DHT22;18929;48.008;10.882;2023-04-24T03:29:33;12.00;99.90
32476;DHT22;18929;48.008;10.882;2023-04-24T03:32:00;12.00;99.90
32476;DHT22;18929;48.008;10.882;2023-04-24T03:34:27;12.00;99.90
32476;DHT22;18929;48.008;10.882;2023-04-24T03:36:54;12.00;99.90
32476;DHT22;18929;48.008;10.882;2023-04-24T03:39:20;11.90;99.90
32476;DHT22;18929;48.008;10.882;2023-04-24T03:41:48;12.00;99.90
32476;DHT22;18929;48.008;10.882;2023-04-24T03:44:15;12.00;99.90
32476;DHT22;18929;48.008;10.882;2023-04-24T03:46:42;12.10;99.90
32476;DHT22;18929;48.008;10.882;2023-04-24T03:49:09;11.70;99.90
32476;DHT22;18929;48.008;10.882;2023-04-24T03:51:35;11.70;99.90
32476;DHT22;18929;48.008;10.882;2023-04-24T03:54:03;11.70;99.90
32476;DHT22;18929;48.008;10.882;2023-04-24T03:56:29;11.80;99.90
32476;DHT22;18929;48.008;10.882;2023-04-24T03:58:57;11.70;99.90
32476;DHT22;18929;48.008;10.882;2023-04-24T04:01:25;11.70;99.90
32476;DHT22;18929;48.008;10.882;2023-04-24T04:03:53;11.60;99.90
32476;DHT22;18929;48.008;10.882;2023-04-24T04:06:20;11.50;99.90
32476;DHT22;18929;48.008;10.882;2023-04-24T04:08:47;11.50;99.90
32476;DHT22;18929;48.008;10.882;2023-04-24T04:11:14;11.50;99.90
32476;DHT22;18929;48.008;10.882;2023-04-24T04:13:41;11.40;99.90
32476;DHT22;18929;48.008;10.882;2023-04-24T04:16:09;11.40;99.90
32476;DHT22;18929;48.008;10.882;2023-04-24T04:18:36;11.60;99.90
32476;DHT22;18929;48.008;10.882;2023-04-24T04:21:03;11.50;99.90
32476;DHT22;18929;48.008;10.882;2023-04-24T04:23:30;11.30;99.90
32476;DHT22;18929;48.008;10.882;2023-04-24T04:25:57;11.30;99.90
32476;DHT22;18929;48.008;10.882;2023-04-24T04:28:30;11.30;99.90
32476;DHT22;18929;48.008;10.882;2023-04-24T04:30:57;11.20;99.90
32476;DHT22;18929;48.008;10.882;2023-04-24T04:33:26;11.20;99.90
32476;DHT22;18929;48.008;10.882;2023-04-24T04:35:52;11.30;99.90
32476;DHT22;18929;48.008;10.882;2023-04-24T04:38:22;11.30;99.90
32476;DHT22;18929;48.008;10.882;2023-04-24T04:40:50;11.50;99.90
32476;DHT22;18929;48.008;10.882;2023-04-24T04:43:16;11.50;99.90
32476;DHT22;18929;48.008;10.882;2023-04-24T04:45:43;11.40;99.90
32476;DHT22;18929;48.008;10.882;2023-04-24T04:48:10;11.30;99.90
32476;DHT22;18929;48.008;10.882;2023-04-24T04:50:40;11.30;99.90
32476;DHT22;18929;48.008;10.882;2023-04-24T04:53:07;11.30;99.90
32476;DHT22;18929;48.008;10.882;2023-04-24T04:55:33;11.20;99.90
32476;DHT22;18929;48.008;10.882;2023-04-24T04:58:01;11.30;99.90
32476;DHT22;18929;48.008;10.882;2023-04-24T05:00:28;11.40;99.90
32476;DHT22;18929;48.008;10.882;2023-04-24T05:02:59;11.30;99.90
32476;DHT22;18929;48.008;10.882;2023-04-24T05:05:26;11.20;99.90
32476;DHT22;18929;48.008;10.882;2023-04-24T05:07:54;11.20;99.90
32476;DHT22;18929;48.008;10.882;2023-04-24T05:10:21;11.30;99.90
32476;DHT22;18929;48.008;10.882;2023-04-24T05:12:47;11.20;99.90
32476;DHT22;18929;48.008;10.882;2023-04-24T05:15:15;11.20;99.90
32476;DHT22;18929;48.008;10.882;2023-04-24T05:17:41;11.10;99.90
32476;DHT22;18929;48.008;10.882;2023-04-24T05:20:08;11.10;99.90
32476;DHT22;18929;48.008;10.882;2023-04-24T05:22:35;11.10;99.90
32476;DHT22;18929;48.008;10.882;2023-04-24T05:25:03;11.20;99.90
32476;DHT22;18929;48.008;10.882;2023-04-24T05:27:31;11.10;99.90
32476;DHT22;18929;48.008;10.882;2023-04-24T05:29:58;11.00;99.90
32476;DHT22;18929;48.008;10.882;2023-04-24T05:32:24;11.10;99.90
32476;DHT22;18929;48.008;10.882;2023-04-24T05:34:52;11.30;99.90
32476;DHT22;18929;48.008;10.882;2023-04-24T05:37:19;11.50;99.90
32476;DHT22;18929;48.008;10.882;2023-04-24T05:39:46;11.40;99.90
32476;DHT22;18929;48.008;10.882;2023-04-24T05:42:14;11.40;99.90
32476;DHT22;18929;48.008;10.882;2023-04-24T05:44:41;11.40;99.90
32476;DHT22;18929;48.008;10.882;2023-04-24T05:47:07;11.30;99.90
32476;DHT22;18929;48.008;10.882;2023-04-24T05:49:34;11.40;99.90
32476;DHT22;18929;48.008;10.882;2023-04-24T05:52:01;11.30;99.90
32476;DHT22;18929;48.008;10.882;2023-04-24T05:54:29;11.10;99.90
32476;DHT22;18929;48.008;10.882;2023-04-24T05:59:59;11.00;99.90
32476;DHT22;18929;48.008;10.882;2023-04-24T06:02:26;11.10;99.90
32476;DHT22;18929;48.008;10.882;2023-04-24T06:04:54;11.10;99.90
32476;DHT22;18929;48.008;10.882;2023-04-24T06:07:21;11.10;99.90
32476;DHT22;18929;48.008;10.882;2023-04-24T06:09:47;11.20;99.90
32476;DHT22;18929;48.008;10.882;2023-04-24T06:12:14;11.20;99.90
32476;DHT22;18929;48.008;10.882;2023-04-24T06:14:41;11.20;99.90
32476;DHT22;18929;48.008;10.882;2023-04-24T06:17:09;11.40;99.90
32476;DHT22;18929;48.008;10.882;2023-04-24T06:19:36;11.30;99.90
32476;DHT22;18929;48.008;10.882;2023-04-24T06:22:02;11.50;99.90
32476;DHT22;18929;48.008;10.882;2023-04-24T06:24:29;11.30;99.90
32476;DHT22;18929;48.008;10.882;2023-04-24T06:26:56;11.30;99.90
32476;DHT22;18929;48.008;10.882;2023-04-24T06:29:24;11.10;99.90
32476;DHT22;18929;48.008;10.882;2023-04-24T06:31:51;11.20;99.90
32476;DHT22;18929;48.008;10.882;2023-04-24T06:34:19;11.10;99.90
32476;DHT22;18929;48.008;10.882;2023-04-24T06:36:46;11.00;99.90
32476;DHT22;18929;48.008;10.882;2023-04-24T06:39:13;11.00;99.90
32476;DHT22;18929;48.008;10.882;2023-04-24T06:41:40;11.00;99.90
32476;DHT22;18929;48.008;10.882;2023-04-24T06:44:06;11.10;99.90
32476;DHT22;18929;48.008;10.882;2023-04-24T06:46:33;11.10;99.90
32476;DHT22;18929;48.008;10.882;2023-04-24T06:49:00;11.10;99.90
32476;DHT22;18929;48.008;10.882;2023-04-24T06:51:29;11.00;99.90
32476;DHT22;18929;48.008;10.882;2023-04-24T06:53:58;11.20;99.90
32476;DHT22;18929;48.008;10.882;2023-04-24T06:56:25;11.30;99.90
32476;DHT22;18929;48.008;10.882;2023-04-24T06:58:54;11.30;99.90
32476;DHT22;18929;48.008;10.882;2023-04-24T07:01:21;11.40;99.90
32476;DHT22;18929;48.008;10.882;2023-04-24T07:03:47;11.10;99.90
32476;DHT22;18929;48.008;10.882;2023-04-24T07:06:14;11.30;99.90
32476;DHT22;18929;48.008;10.882;2023-04-24T07:08:43;11.40;99.90
32476;DHT22;18929;48.008;10.882;2023-04-24T07:11:10;11.20;99.90
32476;DHT22;18929;48.008;10.882;2023-04-24T07:13:36;11.00;99.90
32476;DHT22;18929;48.008;10.882;2023-04-24T07:16:07;11.20;99.90
32476;DHT22;18929;48.008;10.882;2023-04-24T07:18:34;11.20;99.90
32476;DHT22;18929;48.008;10.882;2023-04-24T07:21:02;10.90;99.90
32476;DHT22;18929;48.008;10.882;2023-04-24T07:23:28;10.90;99.90
32476;DHT22;18929;48.008;10.882;2023-04-24T07:25:57;10.70;99.90
32476;DHT22;18929;48.008;10.882;2023-04-24T07:28:24;10.50;99.90
32476;DHT22;18929;48.008;10.882;2023-04-24T07:30:51;10.40;99.90
32476;DHT22;18929;48.008;10.882;2023-04-24T07:33:19;10.50;99.90
32476;DHT22;18929;48.008;10.882;2023-04-24T07:35:46;10.40;99.90
32476;DHT22;18929;48.008;10.882;2023-04-24T07:38:13;10.40;99.90
32476;DHT22;18929;48.008;10.882;2023-04-24T07:40:39;10.40;99.90
32476;DHT22;18929;48.008;10.882;2023-04-24T07:43:07;10.40;99.90
32476;DHT22;18929;48.008;10.882;2023-04-24T07:45:34;10.40;99.90
32476;DHT22;18929;48.008;10.882;2023-04-24T07:48:02;10.60;99.90
32476;DHT22;18929;48.008;10.882;2023-04-24T07:50:29;10.70;99.90
32476;DHT22;18929;48.008;10.882;2023-04-24T07:52:56;10.60;99.90
32476;DHT22;18929;48.008;10.882;2023-04-24T07:55:23;11.00;99.90
32476;DHT22;18929;48.008;10.882;2023-04-24T07:57:50;10.60;99.90
32476;DHT22;18929;48.008;10.882;2023-04-24T08:00:18;10.30;99.90
32476;DHT22;18929;48.008;10.882;2023-04-24T08:02:46;9.40;99.90
32476;DHT22;18929;48.008;10.882;2023-04-24T08:05:12;10.00;99.90
32476;DHT22;18929;48.008;10.882;2023-04-24T08:07:39;10.00;99.90
32476;DHT22;18929;48.008;10.882;2023-04-24T08:10:08;10.20;99.90
32476;DHT22;18929;48.008;10.882;2023-04-24T08:12:36;10.10;99.90
32476;DHT22;18929;48.008;10.882;2023-04-24T08:15:03;10.60;99.90
32476;DHT22;18929;48.008;10.882;2023-04-24T08:17:32;10.20;99.90
32476;DHT22;18929;48.008;10.882;2023-04-24T08:19:58;10.10;99.90
32476;DHT22;18929;48.008;10.882;2023-04-24T08:22:27;10.40;99.90
32476;DHT22;18929;48.008;10.882;2023-04-24T08:24:53;10.40;99.90
32476;DHT22;18929;48.008;10.882;2023-04-24T08:27:21;10.10;99.90
32476;DHT22;18929;48.008;10.882;2023-04-24T08:29:48;9.80;99.90
32476;DHT22;18929;48.008;10.882;2023-04-24T08:32:15;10.10;99.90
32476;DHT22;18929;48.008;10.882;2023-04-24T08:34:43;10.60;99.90
32476;DHT22;18929;48.008;10.882;2023-04-24T08:37:10;10.60;99.90
32476;DHT22;18929;48.008;10.882;2023-04-24T08:39:36;10.80;99.90
32476;DHT22;18929;48.008;10.882;2023-04-24T08:42:04;11.00;99.90
32476;DHT22;18929;48.008;10.882;2023-04-24T08:44:33;10.90;99.90
32476;DHT22;18929;48.008;10.882;2023-04-24T08:47:01;11.00;99.90
32476;DHT22;18929;48.008;10.882;2023-04-24T08:49:28;10.90;99.90
32476;DHT22;18929;48.008;10.882;2023-04-24T08:51:56;11.00;99.90
32476;DHT22;18929;48.008;10.882;2023-04-24T08:54:25;10.90;99.90
32476;DHT22;18929;48.008;10.882;2023-04-24T08:56:52;10.90;99.90
32476;DHT22;18929;48.008;10.882;2023-04-24T08:59:20;11.10;99.90
32476;DHT22;18929;48.008;10.882;2023-04-24T09:01:47;11.20;99.90
32476;DHT22;18929;48.008;10.882;2023-04-24T09:04:15;11.20;99.90
32476;DHT22;18929;48.008;10.882;2023-04-24T09:06:43;10.80;99.90
32476;DHT22;18929;48.008;10.882;2023-04-24T09:09:12;10.90;99.90
32476;DHT22;18929;48.008;10.882;2023-04-24T09:11:39;10.90;99.90
32476;DHT22;18929;48.008;10.882;2023-04-24T09:14:06;10.90;99.90
32476;DHT22;18929;48.008;10.882;2023-04-24T09:16:33;11.00;99.90
32476;DHT22;18929;48.008;10.882;2023-04-24T09:19:00;11.20;99.90
32476;DHT22;18929;48.008;10.882;2023-04-24T09:21:31;11.10;99.90
32476;DHT22;18929;48.008;10.882;2023-04-24T09:23:58;11.00;99.90
32476;DHT22;18929;48.008;10.882;2023-04-24T09:26:27;11.10;99.90
32476;DHT22;18929;48.008;10.882;2023-04-24T09:28:56;11.20;99.90
32476;DHT22;18929;48.008;10.882;2023-04-24T09:31:23;11.50;99.90
32476;DHT22;18929;48.008;10.882;2023-04-24T09:33:53;11.40;99.90
32476;DHT22;18929;48.008;10.882;2023-04-24T09:36:26;11.30;99.90
32476;DHT22;18929;48.008;10.882;2023-04-24T09:38:53;11.50;99.90
32476;DHT22;18929;48.008;10.882;2023-04-24T09:41:24;11.20;99.90
32476;DHT22;18929;48.008;10.882;2023-04-24T09:43:52;11.30;99.90
32476;DHT22;18929;48.008;10.882;2023-04-24T09:46:19;11.30;99.90
32476;DHT22;18929;48.008;10.882;2023-04-24T09:48:47;11.50;99.90
32476;DHT22;18929;48.008;10.882;2023-04-24T09:51:14;11.10;99.90
32476;DHT22;18929;48.008;10.882;2023-04-24T09:53:45;11.10;99.90
32476;DHT22;18929;48.008;10.882;2023-04-24T09:56:12;11.10;99.90
32476;DHT22;18929;48.008;10.882;2023-04-24T09:58:38;11.20;99.90
32476;DHT22;18929;48.008;10.882;2023-04-24T10:01:07;11.20;99.90
32476;DHT22;18929;48.008;10.882;2023-04-24T10:03:34;11.10;99.90
32476;DHT22;18929;48.008;10.882;2023-04-24T10:06:01;9.90;99.90
32476;DHT22;18929;48.008;10.882;2023-04-24T10:08:34;9.80;99.90
32476;DHT22;18929;48.008;10.882;2023-04-24T10:11:01;9.80;99.90
32476;DHT22;18929;48.008;10.882;2023-04-24T10:13:28;9.30;99.90
32476;DHT22;18929;48.008;10.882;2023-04-24T10:15:55;9.70;99.90
32476;DHT22;18929;48.008;10.882;2023-04-24T10:18:24;10.40;99.90
32476;DHT22;18929;48.008;10.882;2023-04-24T10:20:51;10.10;99.90
32476;DHT22;18929;48.008;10.882;2023-04-24T10:23:20;10.10;99.90
32476;DHT22;18929;48.008;10.882;2023-04-24T10:25:47;10.80;99.90
32476;DHT22;18929;48.008;10.882;2023-04-24T10:28:15;10.70;99.90
32476;DHT22;18929;48.008;10.882;2023-04-24T10:30:42;10.60;99.90
32476;DHT22;18929;48.008;10.882;2023-04-24T10:33:09;10.80;99.90
32476;DHT22;18929;48.008;10.882;2023-04-24T10:35:40;10.90;99.90
32476;DHT22;18929;48.008;10.882;2023-04-24T10:38:08;11.00;99.90
32476;DHT22;18929;48.008;10.882;2023-04-24T10:40:35;10.50;99.90
32476;DHT22;18929;48.008;10.882;2023-04-24T10:43:03;10.90;99.90
32476;DHT22;18929;48.008;10.882;2023-04-24T10:45:31;10.90;99.90
32476;DHT22;18929;48.008;10.882;2023-04-24T10:47:58;11.00;99.90
32476;DHT22;18929;48.008;10.882;2023-04-24T10:50:26;10.80;99.90
32476;DHT22;18929;48.008;10.882;2023-04-24T10:53:05;11.20;99.90
32476;DHT22;18929;48.008;10.882;2023-04-24T10:55:42;11.30;99.90
32476;DHT22;18929;48.008;10.882;2023-04-24T10:58:09;11.20;99.90
32476;DHT22;18929;48.008;10.882;2023-04-24T11:03:24;11.80;99.90
32476;DHT22;18929;48.008;10.882;2023-04-24T11:05:52;11.70;99.90
32476;DHT22;18929;48.008;10.882;2023-04-24T11:08:24;11.80;99.90
32476;DHT22;18929;48.008;10.882;2023-04-24T11:10:59;11.40;99.90
32476;DHT22;18929;48.008;10.882;2023-04-24T11:13:27;11.60;99.90
32476;DHT22;18929;48.008;10.882;2023-04-24T11:16:13;11.20;99.90
32476;DHT22;18929;48.008;10.882;2023-04-24T11:18:41;11.50;99.90
32476;DHT22;18929;48.008;10.882;2023-04-24T11:21:11;11.60;99.90
32476;DHT22;18929;48.008;10.882;2023-04-24T11:23:39;11.60;99.90
32476;DHT22;18929;48.008;10.882;2023-04-24T11:26:10;11.50;99.90
32476;DHT22;18929;48.008;10.882;2023-04-24T11:35:01;11.50;99.90
32476;DHT22;18929;48.008;10.882;2023-04-24T11:37:29;11.20;99.90
32476;DHT22;18929;48.008;10.882;2023-04-24T11:39:57;11.40;99.90
32476;DHT22;18929;48.008;10.882;2023-04-24T11:45:36;11.70;99.90
32476;DHT22;18929;48.008;10.882;2023-04-24T11:48:03;11.90;99.90
32476;DHT22;18929;48.008;10.882;2023-04-24T11:50:30;11.70;99.90
32476;DHT22;18929;48.008;10.882;2023-04-24T11:52:57;11.60;99.90
32476;DHT22;18929;48.008;10.882;2023-04-24T11:55:27;11.70;99.90
32476;DHT22;18929;48.008;10.882;2023-04-24T11:57:55;11.60;99.90
32476;DHT22;18929;48.008;10.882;2023-04-24T12:37:52;11.80;99.90
32476;DHT22;18929;48.008;10.882;2023-04-24T12:40:19;11.90;99.90
32476;DHT22;18929;48.008;10.882;2023-04-24T12:42:46;11.90;99.90
32476;DHT22;18929;48.008;10.882;2023-04-24T12:45:14;11.80;99.90
32476;DHT22;18929;48.008;10.882;2023-04-24T12:47:42;11.90;99.90
32476;DHT22;18929;48.008;10.882;2023-04-24T12:50:09;11.70;99.90
32476;DHT22;18929;48.008;10.882;2023-04-24T12:52:37;11.40;99.90
32476;DHT22;18929;48.008;10.882;2023-04-24T12:55:06;11.30;99.90
32476;DHT22;18929;48.008;10.882;2023-04-24T12:57:35;11.20;99.90
32476;DHT22;18929;48.008;10.882;2023-04-24T13:00:02;11.40;99.90
32476;DHT22;18929;48.008;10.882;2023-04-24T13:02:30;11.60;99.90
32476;DHT22;18929;48.008;10.882;2023-04-24T13:04:57;11.80;99.90
32476;DHT22;18929;48.008;10.882;2023-04-24T13:07:24;12.00;99.90
32476;DHT22;18929;48.008;10.882;2023-04-24T13:09:51;11.90;99.90
32476;DHT22;18929;48.008;10.882;2023-04-24T13:12:19;12.00;99.90
32476;DHT22;18929;48.008;10.882;2023-04-24T13:14:46;11.90;99.90
32476;DHT22;18929;48.008;10.882;2023-04-24T13:17:13;11.70;99.90
32476;DHT22;18929;48.008;10.882;2023-04-24T13:19:41;11.80;99.90
32476;DHT22;18929;48.008;10.882;2023-04-24T13:22:09;11.70;99.90
32476;DHT22;18929;48.008;10.882;2023-04-24T13:24:36;11.90;99.90
32476;DHT22;18929;48.008;10.882;2023-04-24T13:27:03;12.10;99.90
32476;DHT22;18929;48.008;10.882;2023-04-24T13:29:31;12.00;99.90
32476;DHT22;18929;48.008;10.882;2023-04-24T13:31:58;11.80;99.90
32476;DHT22;18929;48.008;10.882;2023-04-24T13:34:26;12.10;99.90
32476;DHT22;18929;48.008;10.882;2023-04-24T13:36:53;12.20;99.90
32476;DHT22;18929;48.008;10.882;2023-04-24T13:39:20;12.10;99.90
32476;DHT22;18929;48.008;10.882;2023-04-24T13:41:47;12.20;99.90
32476;DHT22;18929;48.008;10.882;2023-04-24T13:44:14;12.10;99.90
32476;DHT22;18929;48.008;10.882;2023-04-24T13:46:43;12.00;99.90
32476;DHT22;18929;48.008;10.882;2023-04-24T13:49:10;12.00;99.90
32476;DHT22;18929;48.008;10.882;2023-04-24T13:51:37;11.90;99.90
32476;DHT22;18929;48.008;10.882;2023-04-24T13:54:04;11.70;99.90
32476;DHT22;18929;48.008;10.882;2023-04-24T13:56:31;11.70;99.90
32476;DHT22;18929;48.008;10.882;2023-04-24T13:58:58;11.90;99.90
32476;DHT22;18929;48.008;10.882;2023-04-24T14:01:25;12.00;99.90
32476;DHT22;18929;48.008;10.882;2023-04-24T14:03:53;12.00;99.90
32476;DHT22;18929;48.008;10.882;2023-04-24T14:06:21;12.00;99.90
32476;DHT22;18929;48.008;10.882;2023-04-24T14:11:57;12.10;99.90
32476;DHT22;18929;48.008;10.882;2023-04-24T14:14:24;11.90;99.90
32476;DHT22;18929;48.008;10.882;2023-04-24T14:16:51;12.10;99.90
32476;DHT22;18929;48.008;10.882;2023-04-24T14:22:09;12.50;99.90
32476;DHT22;18929;48.008;10.882;2023-04-24T14:24:37;12.60;99.90
32476;DHT22;18929;48.008;10.882;2023-04-24T14:27:04;12.50;99.90
32476;DHT22;18929;48.008;10.882;2023-04-24T14:29:31;12.50;99.90
32476;DHT22;18929;48.008;10.882;2023-04-24T14:31:58;12.50;99.90
32476;DHT22;18929;48.008;10.882;2023-04-24T14:34:24;12.30;99.90
32476;DHT22;18929;48.008;10.882;2023-04-24T14:36:52;12.40;99.90
32476;DHT22;18929;48.008;10.882;2023-04-24T14:39:20;12.30;99.90
32476;DHT22;18929;48.008;10.882;2023-04-24T14:41:46;12.40;99.90
32476;DHT22;18929;48.008;10.882;2023-04-24T14:44:13;12.20;99.90
32476;DHT22;18929;48.008;10.882;2023-04-24T14:46:41;12.00;99.90
32476;DHT22;18929;48.008;10.882;2023-04-24T14:49:07;11.90;99.90
32476;DHT22;18929;48.008;10.882;2023-04-24T14:51:35;12.30;99.90
32476;DHT22;18929;48.008;10.882;2023-04-24T14:54:01;12.30;99.90
32476;DHT22;18929;48.008;10.882;2023-04-24T14:56:30;12.30;99.90
32476;DHT22;18929;48.008;10.882;2023-04-24T14:58:56;12.40;99.90
32476;DHT22;18929;48.008;10.882;2023-04-24T15:01:23;12.50;99.90
32476;DHT22;18929;48.008;10.882;2023-04-24T15:03:50;12.30;99.90
32476;DHT22;18929;48.008;10.882;2023-04-24T15:06:17;12.60;99.90
32476;DHT22;18929;48.008;10.882;2023-04-24T15:08:44;12.60;99.90
32476;DHT22;18929;48.008;10.882;2023-04-24T15:11:11;12.30;99.90
32476;DHT22;18929;48.008;10.882;2023-04-24T15:13:39;12.10;99.90
32476;DHT22;18929;48.008;10.882;2023-04-24T15:16:06;12.20;99.90
32476;DHT22;18929;48.008;10.882;2023-04-24T15:18:33;12.10;99.90
32476;DHT22;18929;48.008;10.882;2023-04-24T15:20:59;12.50;99.90
32476;DHT22;18929;48.008;10.882;2023-04-24T15:23:27;12.70;99.90
32476;DHT22;18929;48.008;10.882;2023-04-24T15:25:53;12.60;99.90
32476;DHT22;18929;48.008;10.882;2023-04-24T15:28:20;12.50;99.90
32476;DHT22;18929;48.008;10.882;2023-04-24T15:30:48;12.50;99.90
32476;DHT22;18929;48.008;10.882;2023-04-24T15:33:15;12.40;99.90
32476;DHT22;18929;48.008;10.882;2023-04-24T15:35:42;12.30;99.90
32476;DHT22;18929;48.008;10.882;2023-04-24T15:38:09;12.40;99.90
32476;DHT22;18929;48.008;10.882;2023-04-24T15:40:36;12.40;99.90
32476;DHT22;18929;48.008;10.882;2023-04-24T15:43:03;12.60;99.90
32476;DHT22;18929;48.008;10.882;2023-04-24T15:45:30;12.70;99.90
32476;DHT22;18929;48.008;10.882;2023-04-24T15:47:58;12.70;99.90
32476;DHT22;18929;48.008;10.882;2023-04-24T15:50:25;12.90;99.90
32476;DHT22;18929;48.008;10.882;2023-04-24T15:52:52;13.30;99.90
32476;DHT22;18929;48.008;10.882;2023-04-24T15:55:19;13.20;99.90
32476;DHT22;18929;48.008;10.882;2023-04-24T15:57:46;13.10;99.90
32476;DHT22;18929;48.008;10.882;2023-04-24T16:03:08;12.50;99.90
32476;DHT22;18929;48.008;10.882;2023-04-24T16:05:34;12.30;99.90
32476;DHT22;18929;48.008;10.882;2023-04-24T16:08:01;12.30;99.90
32476;DHT22;18929;48.008;10.882;2023-04-24T16:10:28;12.50;99.90
32476;DHT22;18929;48.008;10.882;2023-04-24T16:12:55;12.80;99.90
32476;DHT22;18929;48.008;10.882;2023-04-24T16:15:22;12.70;99.90
32476;DHT22;18929;48.008;10.882;2023-04-24T16:17:49;12.30;99.90
32476;DHT22;18929;48.008;10.882;2023-04-24T16:20:17;12.20;99.90
32476;DHT22;18929;48.008;10.882;2023-04-24T16:22:44;12.40;99.90